Terminal Aerodrome Forecast
Issued by NWS Tampa Bay Area, FL

Home | Current Version | Previous Version | Text Only | Print | Product List | Glossary On
Versions: 1 2 3 4 5 6 7 8 9 10 11 12 13 14
184
FTUS42 KTBW 190520
TAFFMY
TAF
KFMY 190520Z 1906/2006 04008KT P6SM SCT250
     FM191400 05010G15KT P6SM SCT030 SCT250
     FM191800 06012G19KT P6SM SCT040 BKN250=

USA.gov is the U.S. government's official web portal to all federal, state and local government web resources and services.